sensor_id;sensor_type;location;lat;lon;timestamp;temperature;humidity
39983;DHT22;25670;44.782;10.356;2023-06-10T00:00:50;21.80;99.90
39983;DHT22;25670;44.782;10.356;2023-06-10T00:03:17;21.80;99.90
39983;DHT22;25670;44.782;10.356;2023-06-10T00:05:43;21.80;99.90
39983;DHT22;25670;44.782;10.356;2023-06-10T00:08:09;21.80;99.90
39983;DHT22;25670;44.782;10.356;2023-06-10T00:10:37;21.70;99.90
39983;DHT22;25670;44.782;10.356;2023-06-10T00:13:05;21.80;99.90
39983;DHT22;25670;44.782;10.356;2023-06-10T00:15:34;21.70;99.90
39983;DHT22;25670;44.782;10.356;2023-06-10T00:18:01;21.70;99.90
39983;DHT22;25670;44.782;10.356;2023-06-10T00:20:28;21.70;99.90
39983;DHT22;25670;44.782;10.356;2023-06-10T00:22:54;21.60;99.90
39983;DHT22;25670;44.782;10.356;2023-06-10T00:25:20;21.60;99.90
39983;DHT22;25670;44.782;10.356;2023-06-10T00:27:46;21.10;99.90
39983;DHT22;25670;44.782;10.356;2023-06-10T00:30:13;21.50;99.90
39983;DHT22;25670;44.782;10.356;2023-06-10T00:32:39;21.40;99.90
39983;DHT22;25670;44.782;10.356;2023-06-10T00:35:06;21.50;99.90
39983;DHT22;25670;44.782;10.356;2023-06-10T00:37:33;21.40;99.90
39983;DHT22;25670;44.782;10.356;2023-06-10T00:40:02;21.40;99.90
39983;DHT22;25670;44.782;10.356;2023-06-10T00:42:29;21.50;99.90
39983;DHT22;25670;44.782;10.356;2023-06-10T00:44:55;21.40;99.90
39983;DHT22;25670;44.782;10.356;2023-06-10T00:47:22;21.40;99.90
39983;DHT22;25670;44.782;10.356;2023-06-10T00:49:49;21.40;99.90
39983;DHT22;25670;44.782;10.356;2023-06-10T00:52:16;21.40;99.90
39983;DHT22;25670;44.782;10.356;2023-06-10T00:54:44;21.40;99.90
39983;DHT22;25670;44.782;10.356;2023-06-10T00:57:12;21.30;99.90
39983;DHT22;25670;44.782;10.356;2023-06-10T00:59:40;21.30;99.90
39983;DHT22;25670;44.782;10.356;2023-06-10T01:02:07;21.40;99.90
39983;DHT22;25670;44.782;10.356;2023-06-10T01:04:33;21.30;99.90
39983;DHT22;25670;44.782;10.356;2023-06-10T01:10:09;21.20;99.90
39983;DHT22;25670;44.782;10.356;2023-06-10T01:12:46;21.10;99.90
39983;DHT22;25670;44.782;10.356;2023-06-10T01:15:16;21.10;99.90
39983;DHT22;25670;44.782;10.356;2023-06-10T01:17:55;21.00;99.90
39983;DHT22;25670;44.782;10.356;2023-06-10T01:20:27;20.90;99.90
39983;DHT22;25670;44.782;10.356;2023-06-10T01:22:57;20.90;99.90
39983;DHT22;25670;44.782;10.356;2023-06-10T01:25:24;20.90;99.90
39983;DHT22;25670;44.782;10.356;2023-06-10T01:28:14;20.80;99.90
39983;DHT22;25670;44.782;10.356;2023-06-10T01:30:52;20.80;99.90
39983;DHT22;25670;44.782;10.356;2023-06-10T01:33:31;20.70;99.90
39983;DHT22;25670;44.782;10.356;2023-06-10T01:36:00;20.60;99.90
39983;DHT22;25670;44.782;10.356;2023-06-10T01:38:33;20.50;99.90
39983;DHT22;25670;44.782;10.356;2023-06-10T01:41:03;20.30;99.90
39983;DHT22;25670;44.782;10.356;2023-06-10T01:43:33;20.30;99.90
39983;DHT22;25670;44.782;10.356;2023-06-10T01:45:59;20.20;99.90
39983;DHT22;25670;44.782;10.356;2023-06-10T01:48:26;20.10;99.90
39983;DHT22;25670;44.782;10.356;2023-06-10T01:50:53;20.10;99.90
39983;DHT22;25670;44.782;10.356;2023-06-10T01:53:20;19.90;99.90
39983;DHT22;25670;44.782;10.356;2023-06-10T01:55:47;19.90;99.90
39983;DHT22;25670;44.782;10.356;2023-06-10T01:58:13;19.80;99.90
39983;DHT22;25670;44.782;10.356;2023-06-10T02:00:39;19.80;99.90
39983;DHT22;25670;44.782;10.356;2023-06-10T02:03:08;19.80;99.90
39983;DHT22;25670;44.782;10.356;2023-06-10T02:05:35;19.80;99.90
39983;DHT22;25670;44.782;10.356;2023-06-10T02:08:01;19.80;99.90
39983;DHT22;25670;44.782;10.356;2023-06-10T02:10:28;19.70;99.90
39983;DHT22;25670;44.782;10.356;2023-06-10T02:12:57;19.70;99.90
39983;DHT22;25670;44.782;10.356;2023-06-10T02:15:23;19.70;99.90
39983;DHT22;25670;44.782;10.356;2023-06-10T02:17:49;19.70;99.90
39983;DHT22;25670;44.782;10.356;2023-06-10T02:20:16;19.70;99.90
39983;DHT22;25670;44.782;10.356;2023-06-10T02:22:43;19.70;99.90
39983;DHT22;25670;44.782;10.356;2023-06-10T02:25:09;19.70;99.90
39983;DHT22;25670;44.782;10.356;2023-06-10T02:27:35;19.70;99.90
39983;DHT22;25670;44.782;10.356;2023-06-10T02:30:02;19.70;99.90
39983;DHT22;25670;44.782;10.356;2023-06-10T02:32:30;19.70;99.90
39983;DHT22;25670;44.782;10.356;2023-06-10T02:34:56;19.70;99.90
39983;DHT22;25670;44.782;10.356;2023-06-10T02:37:25;19.70;99.90
39983;DHT22;25670;44.782;10.356;2023-06-10T02:42:18;19.70;99.90
39983;DHT22;25670;44.782;10.356;2023-06-10T02:44:45;19.80;99.90
39983;DHT22;25670;44.782;10.356;2023-06-10T02:47:16;19.70;99.90
39983;DHT22;25670;44.782;10.356;2023-06-10T02:49:43;19.70;99.90
39983;DHT22;25670;44.782;10.356;2023-06-10T02:52:09;19.70;99.90
39983;DHT22;25670;44.782;10.356;2023-06-10T02:54:37;19.70;99.90
39983;DHT22;25670;44.782;10.356;2023-06-10T02:57:06;19.70;99.90
39983;DHT22;25670;44.782;10.356;2023-06-10T02:59:33;19.70;99.90
39983;DHT22;25670;44.782;10.356;2023-06-10T03:02:00;19.80;99.90
39983;DHT22;25670;44.782;10.356;2023-06-10T03:04:29;19.80;99.90
39983;DHT22;25670;44.782;10.356;2023-06-10T03:07:05;19.80;99.90
39983;DHT22;25670;44.782;10.356;2023-06-10T03:09:34;19.70;99.90
39983;DHT22;25670;44.782;10.356;2023-06-10T03:12:02;19.70;99.90
39983;DHT22;25670;44.782;10.356;2023-06-10T03:14:34;19.80;99.90
39983;DHT22;25670;44.782;10.356;2023-06-10T03:17:01;19.80;99.90
39983;DHT22;25670;44.782;10.356;2023-06-10T03:19:30;19.80;99.90
39983;DHT22;25670;44.782;10.356;2023-06-10T03:22:07;19.80;99.90
39983;DHT22;25670;44.782;10.356;2023-06-10T03:24:35;19.80;99.90
39983;DHT22;25670;44.782;10.356;2023-06-10T03:27:02;19.80;99.90
39983;DHT22;25670;44.782;10.356;2023-06-10T03:29:31;19.80;99.90
39983;DHT22;25670;44.782;10.356;2023-06-10T03:31:58;19.70;99.90
39983;DHT22;25670;44.782;10.356;2023-06-10T03:34:25;19.60;99.90
39983;DHT22;25670;44.782;10.356;2023-06-10T03:36:51;19.60;99.90
39983;DHT22;25670;44.782;10.356;2023-06-10T03:39:17;19.60;99.90
39983;DHT22;25670;44.782;10.356;2023-06-10T03:41:43;19.60;99.90
39983;DHT22;25670;44.782;10.356;2023-06-10T03:44:10;19.50;99.90
39983;DHT22;25670;44.782;10.356;2023-06-10T03:46:37;19.50;99.90
39983;DHT22;25670;44.782;10.356;2023-06-10T03:49:04;19.50;99.90
39983;DHT22;25670;44.782;10.356;2023-06-10T03:51:31;19.50;99.90
39983;DHT22;25670;44.782;10.356;2023-06-10T03:53:58;19.50;99.90
39983;DHT22;25670;44.782;10.356;2023-06-10T03:56:24;19.50;99.90
39983;DHT22;25670;44.782;10.356;2023-06-10T03:58:52;19.60;99.90
39983;DHT22;25670;44.782;10.356;2023-06-10T04:01:18;19.50;99.90
39983;DHT22;25670;44.782;10.356;2023-06-10T04:03:47;19.50;99.90
39983;DHT22;25670;44.782;10.356;2023-06-10T04:06:15;19.50;99.90
39983;DHT22;25670;44.782;10.356;2023-06-10T04:08:41;19.40;99.90
39983;DHT22;25670;44.782;10.356;2023-06-10T04:11:09;19.50;99.90
39983;DHT22;25670;44.782;10.356;2023-06-10T04:13:35;19.40;99.90
39983;DHT22;25670;44.782;10.356;2023-06-10T04:16:03;19.40;99.90
39983;DHT22;25670;44.782;10.356;2023-06-10T04:18:29;19.30;99.90
39983;DHT22;25670;44.782;10.356;2023-06-10T04:20:59;19.30;99.90
39983;DHT22;25670;44.782;10.356;2023-06-10T04:31:50;19.60;99.90
39983;DHT22;25670;44.782;10.356;2023-06-10T04:34:17;19.30;99.90
39983;DHT22;25670;44.782;10.356;2023-06-10T04:55:49;19.50;99.90
39983;DHT22;25670;44.782;10.356;2023-06-10T05:04:21;19.80;99.90
39983;DHT22;25670;44.782;10.356;2023-06-10T05:07:07;19.70;99.90
39983;DHT22;25670;44.782;10.356;2023-06-10T05:12:04;19.80;99.90
39983;DHT22;25670;44.782;10.356;2023-06-10T05:15:28;19.90;99.90
39983;DHT22;25670;44.782;10.356;2023-06-10T05:43:50;20.40;99.90
39983;DHT22;25670;44.782;10.356;2023-06-10T05:53:36;20.90;99.90
39983;DHT22;25670;44.782;10.356;2023-06-10T05:56:02;20.90;99.90
39983;DHT22;25670;44.782;10.356;2023-06-10T06:03:27;21.40;99.90
39983;DHT22;25670;44.782;10.356;2023-06-10T06:10:47;21.20;99.90
39983;DHT22;25670;44.782;10.356;2023-06-10T06:13:14;21.50;99.90
39983;DHT22;25670;44.782;10.356;2023-06-10T06:15:41;21.50;99.90
39983;DHT22;25670;44.782;10.356;2023-06-10T06:23:01;21.80;99.90
39983;DHT22;25670;44.782;10.356;2023-06-10T06:25:27;21.80;99.90
39983;DHT22;25670;44.782;10.356;2023-06-10T06:32:46;21.80;99.90
39983;DHT22;25670;44.782;10.356;2023-06-10T06:37:39;22.00;99.90
39983;DHT22;25670;44.782;10.356;2023-06-10T06:40:20;22.00;99.90
39983;DHT22;25670;44.782;10.356;2023-06-10T06:42:46;21.80;99.90
39983;DHT22;25670;44.782;10.356;2023-06-10T06:45:36;21.90;99.90
39983;DHT22;25670;44.782;10.356;2023-06-10T06:48:02;21.80;99.90
39983;DHT22;25670;44.782;10.356;2023-06-10T06:50:28;21.80;99.90
39983;DHT22;25670;44.782;10.356;2023-06-10T06:52:54;21.90;99.90
39983;DHT22;25670;44.782;10.356;2023-06-10T06:55:21;21.90;99.90
39983;DHT22;25670;44.782;10.356;2023-06-10T06:57:47;21.80;99.90
39983;DHT22;25670;44.782;10.356;2023-06-10T07:00:13;21.50;99.90
39983;DHT22;25670;44.782;10.356;2023-06-10T07:02:39;21.40;99.90
39983;DHT22;25670;44.782;10.356;2023-06-10T07:05:06;21.30;99.90
39983;DHT22;25670;44.782;10.356;2023-06-10T07:07:34;21.10;99.90
39983;DHT22;25670;44.782;10.356;2023-06-10T07:10:00;20.90;99.90
39983;DHT22;25670;44.782;10.356;2023-06-10T07:12:26;20.80;99.90
39983;DHT22;25670;44.782;10.356;2023-06-10T07:14:52;20.70;99.90
39983;DHT22;25670;44.782;10.356;2023-06-10T07:17:18;20.70;99.90
39983;DHT22;25670;44.782;10.356;2023-06-10T07:19:45;20.60;99.90
39983;DHT22;25670;44.782;10.356;2023-06-10T07:22:12;20.60;99.90
39983;DHT22;25670;44.782;10.356;2023-06-10T07:24:38;20.60;99.90
39983;DHT22;25670;44.782;10.356;2023-06-10T07:27:05;20.40;99.90
39983;DHT22;25670;44.782;10.356;2023-06-10T07:29:31;20.10;99.90
39983;DHT22;25670;44.782;10.356;2023-06-10T07:31:58;20.20;99.90
39983;DHT22;25670;44.782;10.356;2023-06-10T07:34:24;20.20;99.90
39983;DHT22;25670;44.782;10.356;2023-06-10T07:36:50;20.20;99.90
39983;DHT22;25670;44.782;10.356;2023-06-10T07:39:16;20.20;99.90
39983;DHT22;25670;44.782;10.356;2023-06-10T07:41:43;20.10;99.90
39983;DHT22;25670;44.782;10.356;2023-06-10T07:44:09;20.20;99.90
39983;DHT22;25670;44.782;10.356;2023-06-10T07:46:35;20.20;99.90
39983;DHT22;25670;44.782;10.356;2023-06-10T07:49:01;20.00;99.90
39983;DHT22;25670;44.782;10.356;2023-06-10T07:51:28;20.00;99.90
39983;DHT22;25670;44.782;10.356;2023-06-10T07:53:54;20.00;99.90
39983;DHT22;25670;44.782;10.356;2023-06-10T07:56:20;19.90;99.90
39983;DHT22;25670;44.782;10.356;2023-06-10T07:58:47;19.60;99.90
39983;DHT22;25670;44.782;10.356;2023-06-10T08:01:14;19.80;99.90
39983;DHT22;25670;44.782;10.356;2023-06-10T08:03:40;19.80;99.90
39983;DHT22;25670;44.782;10.356;2023-06-10T08:06:06;19.80;99.90
39983;DHT22;25670;44.782;10.356;2023-06-10T08:08:32;19.90;99.90
39983;DHT22;25670;44.782;10.356;2023-06-10T08:11:00;19.80;99.90
39983;DHT22;25670;44.782;10.356;2023-06-10T08:13:26;19.80;99.90
39983;DHT22;25670;44.782;10.356;2023-06-10T08:15:52;19.80;99.90
39983;DHT22;25670;44.782;10.356;2023-06-10T08:18:21;19.70;99.90
39983;DHT22;25670;44.782;10.356;2023-06-10T08:20:47;19.70;99.90
39983;DHT22;25670;44.782;10.356;2023-06-10T08:23:14;19.70;99.90
39983;DHT22;25670;44.782;10.356;2023-06-10T08:25:40;19.60;99.90
39983;DHT22;25670;44.782;10.356;2023-06-10T08:28:06;19.50;99.90
39983;DHT22;25670;44.782;10.356;2023-06-10T08:30:32;19.50;99.90
39983;DHT22;25670;44.782;10.356;2023-06-10T08:33:00;19.60;99.90
39983;DHT22;25670;44.782;10.356;2023-06-10T08:35:26;19.70;99.90
39983;DHT22;25670;44.782;10.356;2023-06-10T08:37:52;19.80;99.90
39983;DHT22;25670;44.782;10.356;2023-06-10T08:40:18;19.80;99.90
39983;DHT22;25670;44.782;10.356;2023-06-10T08:42:57;19.80;99.90
39983;DHT22;25670;44.782;10.356;2023-06-10T08:45:28;19.90;99.90
39983;DHT22;25670;44.782;10.356;2023-06-10T08:47:57;19.90;99.90
39983;DHT22;25670;44.782;10.356;2023-06-10T08:50:23;20.00;99.90
39983;DHT22;25670;44.782;10.356;2023-06-10T08:52:53;20.10;99.90
39983;DHT22;25670;44.782;10.356;2023-06-10T08:55:26;20.10;99.90
39983;DHT22;25670;44.782;10.356;2023-06-10T08:57:53;20.10;99.90
39983;DHT22;25670;44.782;10.356;2023-06-10T09:00:20;20.10;99.90
39983;DHT22;25670;44.782;10.356;2023-06-10T09:02:47;20.20;99.90
39983;DHT22;25670;44.782;10.356;2023-06-10T09:05:13;20.30;99.90
39983;DHT22;25670;44.782;10.356;2023-06-10T09:07:40;20.50;99.90
39983;DHT22;25670;44.782;10.356;2023-06-10T09:10:06;20.70;99.90
39983;DHT22;25670;44.782;10.356;2023-06-10T09:12:34;20.90;99.90
39983;DHT22;25670;44.782;10.356;2023-06-10T09:15:05;21.00;99.90
39983;DHT22;25670;44.782;10.356;2023-06-10T09:17:31;21.20;99.90
39983;DHT22;25670;44.782;10.356;2023-06-10T09:19:59;21.30;99.90
39983;DHT22;25670;44.782;10.356;2023-06-10T09:22:25;21.30;99.90
39983;DHT22;25670;44.782;10.356;2023-06-10T09:25:11;21.30;99.90
39983;DHT22;25670;44.782;10.356;2023-06-10T09:27:52;21.50;99.90
39983;DHT22;25670;44.782;10.356;2023-06-10T09:30:33;21.80;99.90
39983;DHT22;25670;44.782;10.356;2023-06-10T09:33:13;22.10;99.90
39983;DHT22;25670;44.782;10.356;2023-06-10T09:35:48;22.10;99.90
39983;DHT22;25670;44.782;10.356;2023-06-10T09:38:20;22.30;99.90
39983;DHT22;25670;44.782;10.356;2023-06-10T09:40:52;22.30;99.90
39983;DHT22;25670;44.782;10.356;2023-06-10T09:43:18;22.30;99.90
39983;DHT22;25670;44.782;10.356;2023-06-10T09:45:48;22.60;99.90
39983;DHT22;25670;44.782;10.356;2023-06-10T09:48:14;22.80;99.90
39983;DHT22;25670;44.782;10.356;2023-06-10T09:50:45;22.80;99.90
39983;DHT22;25670;44.782;10.356;2023-06-10T09:53:11;22.80;99.90
39983;DHT22;25670;44.782;10.356;2023-06-10T09:55:39;23.10;99.90
39983;DHT22;25670;44.782;10.356;2023-06-10T09:58:06;23.10;99.90
39983;DHT22;25670;44.782;10.356;2023-06-10T10:00:33;23.10;99.90
39983;DHT22;25670;44.782;10.356;2023-06-10T10:03:01;23.30;99.90
39983;DHT22;25670;44.782;10.356;2023-06-10T10:05:27;23.10;99.90
39983;DHT22;25670;44.782;10.356;2023-06-10T10:07:54;23.10;99.90
39983;DHT22;25670;44.782;10.356;2023-06-10T10:10:22;22.80;99.90
39983;DHT22;25670;44.782;10.356;2023-06-10T10:12:53;22.60;99.90
39983;DHT22;25670;44.782;10.356;2023-06-10T10:15:22;22.90;99.90
39983;DHT22;25670;44.782;10.356;2023-06-10T10:17:57;22.90;99.90
39983;DHT22;25670;44.782;10.356;2023-06-10T10:20:33;22.90;99.90
39983;DHT22;25670;44.782;10.356;2023-06-10T10:23:03;23.00;99.90
39983;DHT22;25670;44.782;10.356;2023-06-10T10:25:35;23.20;99.90
39983;DHT22;25670;44.782;10.356;2023-06-10T10:28:12;23.30;99.90
39983;DHT22;25670;44.782;10.356;2023-06-10T10:30:45;23.20;99.90
39983;DHT22;25670;44.782;10.356;2023-06-10T10:36:10;23.70;99.90
39983;DHT22;25670;44.782;10.356;2023-06-10T10:38:36;23.60;99.90
39983;DHT22;25670;44.782;10.356;2023-06-10T10:41:04;23.90;99.90
39983;DHT22;25670;44.782;10.356;2023-06-10T10:43:31;24.00;99.90
39983;DHT22;25670;44.782;10.356;2023-06-10T10:46:02;24.10;99.90
39983;DHT22;25670;44.782;10.356;2023-06-10T10:48:38;23.70;99.90
39983;DHT22;25670;44.782;10.356;2023-06-10T10:51:04;23.60;99.90
39983;DHT22;25670;44.782;10.356;2023-06-10T10:53:31;23.80;99.90
39983;DHT22;25670;44.782;10.356;2023-06-10T10:56:04;24.10;99.90
39983;DHT22;25670;44.782;10.356;2023-06-10T10:58:30;24.20;99.90
39983;DHT22;25670;44.782;10.356;2023-06-10T11:00:58;24.30;99.90
39983;DHT22;25670;44.782;10.356;2023-06-10T11:03:29;24.70;99.90
39983;DHT22;25670;44.782;10.356;2023-06-10T11:05:59;24.60;99.90
39983;DHT22;25670;44.782;10.356;2023-06-10T11:10:55;25.10;99.90
39983;DHT22;25670;44.782;10.356;2023-06-10T11:13:22;25.40;99.90
39983;DHT22;25670;44.782;10.356;2023-06-10T11:15:49;25.40;99.90
39983;DHT22;25670;44.782;10.356;2023-06-10T11:18:28;25.30;99.90
39983;DHT22;25670;44.782;10.356;2023-06-10T11:21:00;25.20;99.90
39983;DHT22;25670;44.782;10.356;2023-06-10T11:31:26;25.20;99.90
39983;DHT22;25670;44.782;10.356;2023-06-10T11:36:19;25.30;99.90
39983;DHT22;25670;44.782;10.356;2023-06-10T11:38:46;25.40;99.90
39983;DHT22;25670;44.782;10.356;2023-06-10T11:41:13;25.30;99.90
39983;DHT22;25670;44.782;10.356;2023-06-10T11:43:44;25.30;99.90
39983;DHT22;25670;44.782;10.356;2023-06-10T11:46:14;25.00;99.90
39983;DHT22;25670;44.782;10.356;2023-06-10T11:48:52;24.50;99.90
39983;DHT22;25670;44.782;10.356;2023-06-10T11:51:19;25.30;99.90
39983;DHT22;25670;44.782;10.356;2023-06-10T11:53:46;25.30;99.90
39983;DHT22;25670;44.782;10.356;2023-06-10T11:56:13;25.50;99.90
39983;DHT22;25670;44.782;10.356;2023-06-10T11:58:43;25.50;99.90
39983;DHT22;25670;44.782;10.356;2023-06-10T12:01:10;25.70;99.90
39983;DHT22;25670;44.782;10.356;2023-06-10T12:03:37;25.70;99.90
39983;DHT22;25670;44.782;10.356;2023-06-10T12:06:05;25.70;99.90
39983;DHT22;25670;44.782;10.356;2023-06-10T12:08:33;25.70;99.90
39983;DHT22;25670;44.782;10.356;2023-06-10T12:11:07;25.50;99.90
39983;DHT22;25670;44.782;10.356;2023-06-10T12:13:33;25.10;99.90
39983;DHT22;25670;44.782;10.356;2023-06-10T12:16:10;24.90;99.90
39983;DHT22;25670;44.782;10.356;2023-06-10T12:18:36;25.10;99.90
39983;DHT22;25670;44.782;10.356;2023-06-10T12:21:02;25.30;99.90
39983;DHT22;25670;44.782;10.356;2023-06-10T12:23:29;25.90;99.90
39983;DHT22;25670;44.782;10.356;2023-06-10T12:25:57;27.20;99.90
39983;DHT22;25670;44.782;10.356;2023-06-10T12:28:24;28.10;99.90
39983;DHT22;25670;44.782;10.356;2023-06-10T12:30:51;28.10;99.90
39983;DHT22;25670;44.782;10.356;2023-06-10T12:33:21;28.00;99.90
39983;DHT22;25670;44.782;10.356;2023-06-10T12:35:48;27.90;99.90
39983;DHT22;25670;44.782;10.356;2023-06-10T12:38:21;27.30;99.90
39983;DHT22;25670;44.782;10.356;2023-06-10T12:40:47;27.30;99.90
39983;DHT22;25670;44.782;10.356;2023-06-10T12:43:25;27.30;99.90
39983;DHT22;25670;44.782;10.356;2023-06-10T12:45:51;27.50;99.90
39983;DHT22;25670;44.782;10.356;2023-06-10T12:48:23;27.10;99.90
39983;DHT22;25670;44.782;10.356;2023-06-10T12:50:57;27.10;99.90
39983;DHT22;25670;44.782;10.356;2023-06-10T12:53:24;27.20;99.90
39983;DHT22;25670;44.782;10.356;2023-06-10T12:55:52;27.40;99.90
39983;DHT22;25670;44.782;10.356;2023-06-10T12:58:22;27.60;99.90
39983;DHT22;25670;44.782;10.356;2023-06-10T13:00:49;28.00;99.90
39983;DHT22;25670;44.782;10.356;2023-06-10T13:03:18;28.30;99.90
39983;DHT22;25670;44.782;10.356;2023-06-10T13:05:44;28.80;99.90
39983;DHT22;25670;44.782;10.356;2023-06-10T13:08:10;28.90;99.90
39983;DHT22;25670;44.782;10.356;2023-06-10T13:10:37;29.00;99.90
39983;DHT22;25670;44.782;10.356;2023-06-10T13:13:04;28.60;99.90
39983;DHT22;25670;44.782;10.356;2023-06-10T13:15:32;27.30;99.90
39983;DHT22;25670;44.782;10.356;2023-06-10T13:18:03;27.20;99.90
39983;DHT22;25670;44.782;10.356;2023-06-10T13:20:29;28.50;99.90
39983;DHT22;25670;44.782;10.356;2023-06-10T13:22:56;26.80;99.90
39983;DHT22;25670;44.782;10.356;2023-06-10T13:25:22;26.40;99.90
39983;DHT22;25670;44.782;10.356;2023-06-10T13:27:49;26.30;99.90
39983;DHT22;25670;44.782;10.356;2023-06-10T13:30:15;26.70;99.90
39983;DHT22;25670;44.782;10.356;2023-06-10T13:32:41;26.90;99.90
39983;DHT22;25670;44.782;10.356;2023-06-10T13:35:08;26.80;99.90
39983;DHT22;25670;44.782;10.356;2023-06-10T13:37:34;26.60;99.90
39983;DHT22;25670;44.782;10.356;2023-06-10T13:40:01;26.20;99.90
39983;DHT22;25670;44.782;10.356;2023-06-10T13:42:28;26.20;99.90
39983;DHT22;25670;44.782;10.356;2023-06-10T13:44:55;26.50;99.90
39983;DHT22;25670;44.782;10.356;2023-06-10T13:47:22;27.10;99.90
39983;DHT22;25670;44.782;10.356;2023-06-10T13:49:48;27.40;99.90
39983;DHT22;25670;44.782;10.356;2023-06-10T13:52:14;27.10;99.90
39983;DHT22;25670;44.782;10.356;2023-06-10T13:54:40;27.00;99.90
39983;DHT22;25670;44.782;10.356;2023-06-10T13:57:07;27.20;99.90
39983;DHT22;25670;44.782;10.356;2023-06-10T13:59:33;27.70;99.90
39983;DHT22;25670;44.782;10.356;2023-06-10T14:01:59;27.10;99.90
39983;DHT22;25670;44.782;10.356;2023-06-10T14:04:26;27.50;99.90
39983;DHT22;25670;44.782;10.356;2023-06-10T14:06:52;28.20;99.90
39983;DHT22;25670;44.782;10.356;2023-06-10T14:09:18;28.00;99.90
39983;DHT22;25670;44.782;10.356;2023-06-10T14:11:45;28.40;99.90
39983;DHT22;25670;44.782;10.356;2023-06-10T14:14:11;29.00;99.90
39983;DHT22;25670;44.782;10.356;2023-06-10T14:16:37;29.00;99.90
39983;DHT22;25670;44.782;10.356;2023-06-10T14:19:03;29.30;99.90
39983;DHT22;25670;44.782;10.356;2023-06-10T14:21:30;30.00;99.90
39983;DHT22;25670;44.782;10.356;2023-06-10T14:23:56;30.50;99.90
39983;DHT22;25670;44.782;10.356;2023-06-10T14:26:22;31.70;99.90
39983;DHT22;25670;44.782;10.356;2023-06-10T14:28:49;31.60;99.90
39983;DHT22;25670;44.782;10.356;2023-06-10T14:31:16;31.50;99.90
39983;DHT22;25670;44.782;10.356;2023-06-10T14:33:42;33.80;99.90
39983;DHT22;25670;44.782;10.356;2023-06-10T14:36:10;31.40;99.90
39983;DHT22;25670;44.782;10.356;2023-06-10T14:38:37;31.30;99.90
39983;DHT22;25670;44.782;10.356;2023-06-10T14:41:03;32.10;99.90
39983;DHT22;25670;44.782;10.356;2023-06-10T14:43:29;32.20;99.90
39983;DHT22;25670;44.782;10.356;2023-06-10T14:45:56;32.60;99.90
39983;DHT22;25670;44.782;10.356;2023-06-10T14:48:23;32.90;99.90
39983;DHT22;25670;44.782;10.356;2023-06-10T14:50:49;32.90;99.90
39983;DHT22;25670;44.782;10.356;2023-06-10T14:53:20;31.80;99.90
39983;DHT22;25670;44.782;10.356;2023-06-10T14:55:46;31.10;99.90
39983;DHT22;25670;44.782;10.356;2023-06-10T14:58:13;29.60;99.90
39983;DHT22;25670;44.782;10.356;2023-06-10T15:00:39;29.60;99.90
39983;DHT22;25670;44.782;10.356;2023-06-10T15:03:05;30.00;99.90
39983;DHT22;25670;44.782;10.356;2023-06-10T15:05:31;29.90;99.90
39983;DHT22;25670;44.782;10.356;2023-06-10T15:07:59;30.70;99.90
39983;DHT22;25670;44.782;10.356;2023-06-10T15:10:25;32.60;99.90
39983;DHT22;25670;44.782;10.356;2023-06-10T15:12:51;34.20;99.90
39983;DHT22;25670;44.782;10.356;2023-06-10T15:15:22;35.20;99.90
39983;DHT22;25670;44.782;10.356;2023-06-10T15:17:49;36.10;99.90
39983;DHT22;25670;44.782;10.356;2023-06-10T15:20:15;35.60;99.00
39983;DHT22;25670;44.782;10.356;2023-06-10T15:22:41;34.30;98.30
39983;DHT22;25670;44.782;10.356;2023-06-10T15:25:07;36.20;97.60
39983;DHT22;25670;44.782;10.356;2023-06-10T15:27:33;36.90;96.60
39983;DHT22;25670;44.782;10.356;2023-06-10T15:30:00;37.60;95.00
39983;DHT22;25670;44.782;10.356;2023-06-10T15:32:26;38.10;93.80
39983;DHT22;25670;44.782;10.356;2023-06-10T15:34:52;38.00;92.60
39983;DHT22;25670;44.782;10.356;2023-06-10T15:37:19;38.00;91.90
39983;DHT22;25670;44.782;10.356;2023-06-10T15:39:47;38.60;91.30
39983;DHT22;25670;44.782;10.356;2023-06-10T15:42:13;37.70;91.10
39983;DHT22;25670;44.782;10.356;2023-06-10T15:44:40;37.80;90.60
39983;DHT22;25670;44.782;10.356;2023-06-10T15:47:06;38.30;90.10
39983;DHT22;25670;44.782;10.356;2023-06-10T15:49:32;38.30;90.30
39983;DHT22;25670;44.782;10.356;2023-06-10T15:51:58;38.60;89.50
39983;DHT22;25670;44.782;10.356;2023-06-10T15:54:24;38.00;90.20
39983;DHT22;25670;44.782;10.356;2023-06-10T15:56:51;38.30;90.00
39983;DHT22;25670;44.782;10.356;2023-06-10T15:59:17;38.40;88.80
39983;DHT22;25670;44.782;10.356;2023-06-10T16:01:43;38.90;88.50
39983;DHT22;25670;44.782;10.356;2023-06-10T16:04:09;38.10;88.00
39983;DHT22;25670;44.782;10.356;2023-06-10T16:06:35;37.60;89.70
39983;DHT22;25670;44.782;10.356;2023-06-10T16:09:02;37.80;88.90
39983;DHT22;25670;44.782;10.356;2023-06-10T16:11:28;37.50;90.30
39983;DHT22;25670;44.782;10.356;2023-06-10T16:13:55;37.20;89.50
39983;DHT22;25670;44.782;10.356;2023-06-10T16:16:21;37.30;90.00
39983;DHT22;25670;44.782;10.356;2023-06-10T16:18:47;37.50;89.50
39983;DHT22;25670;44.782;10.356;2023-06-10T16:21:13;38.10;87.70
39983;DHT22;25670;44.782;10.356;2023-06-10T16:23:40;38.00;88.30
39983;DHT22;25670;44.782;10.356;2023-06-10T16:26:06;37.70;88.00
39983;DHT22;25670;44.782;10.356;2023-06-10T16:28:32;37.60;88.50
39983;DHT22;25670;44.782;10.356;2023-06-10T16:30:58;37.80;87.90
39983;DHT22;25670;44.782;10.356;2023-06-10T16:33:24;38.00;87.40
39983;DHT22;25670;44.782;10.356;2023-06-10T16:35:51;37.80;88.60
39983;DHT22;25670;44.782;10.356;2023-06-10T16:38:17;38.40;86.30
39983;DHT22;25670;44.782;10.356;2023-06-10T16:40:43;38.60;86.60
39983;DHT22;25670;44.782;10.356;2023-06-10T16:43:09;38.10;86.30
39983;DHT22;25670;44.782;10.356;2023-06-10T16:45:36;37.70;88.10
39983;DHT22;25670;44.782;10.356;2023-06-10T16:48:02;36.60;88.50
39983;DHT22;25670;44.782;10.356;2023-06-10T16:50:28;34.90;90.60
39983;DHT22;25670;44.782;10.356;2023-06-10T16:52:54;33.70;92.40
39983;DHT22;25670;44.782;10.356;2023-06-10T16:55:21;33.10;94.00
39983;DHT22;25670;44.782;10.356;2023-06-10T16:57:47;33.60;93.30
39983;DHT22;25670;44.782;10.356;2023-06-10T17:00:13;33.60;93.30
39983;DHT22;25670;44.782;10.356;2023-06-10T17:02:40;35.20;91.90
39983;DHT22;25670;44.782;10.356;2023-06-10T17:05:06;35.80;91.00
39983;DHT22;25670;44.782;10.356;2023-06-10T17:07:32;36.20;90.30
39983;DHT22;25670;44.782;10.356;2023-06-10T17:09:58;36.00;90.30
39983;DHT22;25670;44.782;10.356;2023-06-10T17:12:25;35.70;90.80